Time;durP1;ratioP1;P1;durP2;ratioP2;P2;SDS_P1;SDS_P2;PMS_P1;PMS_P2;Temp;Humidity;BMP_temperature;BMP_pressure;BME280_temperature;BME280_humidity;BME280_pressure;Samples;Min_cycle;Max_cycle;Signal;HPM_P1;HPM_P2
2022/11/15 00:01:05;;;;;;;4.33;3.83;;;14.70;61.10;;;;;;5027832;28;20450;-60
2022/11/15 00:03:31;;;;;;;5.33;3.70;;;14.70;61.30;;;;;;5028256;28;20276;-60
2022/11/15 00:06:01;;;;;;;4.70;4.23;;;14.60;61.10;;;;;;5032589;28;20535;-60
2022/11/15 00:08:32;;;;;;;4.23;3.80;;;14.60;61.40;;;;;;5030832;28;20193;-59
2022/11/15 00:11:00;;;;;;;4.53;4.13;;;14.60;61.80;;;;;;5031056;28;20466;-59
2022/11/15 00:13:26;;;;;;;5.07;4.67;;;14.60;62.10;;;;;;5028012;28;20494;-59
2022/11/15 00:15:51;;;;;;;7.20;4.77;;;14.50;62.60;;;;;;5031147;28;20439;-60
2022/11/15 00:18:17;;;;;;;6.67;4.60;;;14.50;62.70;;;;;;5026713;28;20767;-59
2022/11/15 00:20:43;;;;;;;5.07;4.57;;;14.40;63.00;;;;;;5025555;28;20232;-59
2022/11/15 00:23:09;;;;;;;9.67;5.83;;;14.60;63.20;;;;;;5023799;28;20978;-59
2022/11/15 00:25:35;;;;;;;6.37;5.73;;;14.60;63.20;;;;;;5022329;28;20442;-60
2022/11/15 00:28:02;;;;;;;6.57;5.70;;;14.70;63.20;;;;;;5026267;28;20440;-59
2022/11/15 00:30:28;;;;;;;8.00;6.07;;;14.70;63.40;;;;;;5022093;28;20978;-59
2022/11/15 00:32:53;;;;;;;6.07;5.37;;;14.80;63.50;;;;;;5027501;28;21004;-60
2022/11/15 00:35:20;;;;;;;5.60;5.00;;;14.90;63.00;;;;;;5023118;28;20490;-59
2022/11/15 00:37:47;;;;;;;6.23;5.50;;;14.90;62.40;;;;;;5030223;28;20193;-59
2022/11/15 00:40:13;;;;;;;6.50;5.03;;;14.90;62.60;;;;;;5023169;28;20440;-59
2022/11/15 00:42:39;;;;;;;6.50;4.70;;;14.90;62.70;;;;;;5025129;28;20448;-59
2022/11/15 00:45:06;;;;;;;5.30;4.80;;;14.90;62.60;;;;;;5035803;28;20446;-59
2022/11/15 00:47:31;;;;;;;4.47;4.03;;;14.80;62.70;;;;;;5027539;28;20440;-59
2022/11/15 00:49:57;;;;;;;5.20;4.77;;;14.80;62.30;;;;;;5027720;28;21380;-60
2022/11/15 00:52:23;;;;;;;3.97;3.57;;;14.70;62.20;;;;;;5027277;28;20193;-60
2022/11/15 00:54:48;;;;;;;5.97;4.30;;;14.90;61.50;;;;;;5029053;28;20487;-59
2022/11/15 00:57:14;;;;;;;6.20;4.30;;;14.90;61.20;;;;;;5022341;28;20193;-60
2022/11/15 00:59:39;;;;;;;4.33;3.93;;;14.80;61.30;;;;;;5028299;28;20615;-59
2022/11/15 01:02:05;;;;;;;4.63;4.20;;;14.70;61.40;;;;;;5022025;28;20197;-59
2022/11/15 01:04:31;;;;;;;4.30;3.50;;;14.80;61.40;;;;;;5025420;28;20201;-60
2022/11/15 01:06:56;;;;;;;4.30;3.90;;;14.70;61.60;;;;;;5022964;28;20193;-59
2022/11/15 01:09:22;;;;;;;6.83;3.90;;;14.70;61.40;;;;;;5028258;28;20205;-59
2022/11/15 01:11:47;;;;;;;5.70;3.90;;;14.80;61.10;;;;;;5027180;28;20562;-60
2022/11/15 01:14:13;;;;;;;4.53;3.60;;;14.80;61.00;;;;;;5024622;28;20225;-60
2022/11/15 01:16:39;;;;;;;4.40;3.60;;;15.00;60.40;;;;;;5028491;28;20205;-60
2022/11/15 01:19:05;;;;;;;4.43;3.77;;;15.00;60.00;;;;;;5028025;28;21120;-60
2022/11/15 01:21:30;;;;;;;4.97;4.27;;;15.00;59.50;;;;;;5030469;28;20312;-60
2022/11/15 01:23:57;;;;;;;4.00;3.53;;;15.10;59.50;;;;;;5023087;28;20197;-59
2022/11/15 01:26:24;;;;;;;5.00;4.10;;;15.20;59.30;;;;;;5030810;28;20211;-59
2022/11/15 01:28:50;;;;;;;5.17;4.67;;;15.20;59.30;;;;;;5022468;28;21278;-59
2022/11/15 01:31:18;;;;;;;9.17;5.27;;;15.30;59.30;;;;;;5026694;28;20468;-59
2022/11/15 01:33:45;;;;;;;6.50;5.03;;;15.20;59.80;;;;;;5027108;28;20578;-59
2022/11/15 01:36:14;;;;;;;8.60;5.37;;;15.30;60.10;;;;;;5024112;28;20456;-60
2022/11/15 01:38:41;;;;;;;8.80;5.50;;;15.30;60.50;;;;;;5020395;28;21542;-60
2022/11/15 01:41:13;;;;;;;7.20;5.30;;;15.30;60.40;;;;;;5029719;28;20526;-59
2022/11/15 01:43:39;;;;;;;7.93;5.83;;;15.30;60.30;;;;;;5019773;28;20452;-59
2022/11/15 01:46:26;;;;;;;6.87;6.27;;;15.30;60.40;;;;;;5028704;28;20446;-59
2022/11/15 01:48:54;;;;;;;6.60;5.00;;;15.30;60.70;;;;;;5023247;28;20451;-59
2022/11/15 01:51:23;;;;;;;6.47;4.87;;;15.30;60.50;;;;;;5020691;28;21193;-59
2022/11/15 01:53:54;;;;;;;6.20;4.80;;;15.20;60.10;;;;;;5020914;28;20500;-59
2022/11/15 01:56:25;;;;;;;5.30;4.50;;;15.20;59.90;;;;;;5020947;28;20472;-59
2022/11/15 01:58:52;;;;;;;5.60;4.50;;;15.10;59.80;;;;;;5023335;28;20600;-59
2022/11/15 02:01:19;;;;;;;6.87;5.40;;;15.00;60.00;;;;;;5018482;28;20494;-59
2022/11/15 02:04:07;;;;;;;4.80;4.30;;;15.00;60.10;;;;;;5019059;28;20444;-60
2022/11/15 02:06:34;;;;;;;7.67;4.27;;;15.00;60.00;;;;;;5022242;28;20443;-60
2022/11/15 02:09:00;;;;;;;5.60;4.50;;;15.00;60.00;;;;;;5025554;28;20472;-60
2022/11/15 02:11:26;;;;;;;6.70;4.70;;;15.00;60.20;;;;;;5024703;28;20479;-59
2022/11/15 02:13:52;;;;;;;6.53;4.80;;;15.00;60.40;;;;;;5027006;28;20514;-59
2022/11/15 02:16:39;;;;;;;7.03;4.90;;;14.90;60.70;;;;;;5022812;28;21189;-59
2022/11/15 02:19:19;;;;;;;5.33;4.83;;;14.90;60.80;;;;;;5022542;28;20444;-59
2022/11/15 02:21:51;;;;;;;6.13;5.57;;;14.90;60.90;;;;;;5026020;28;22453;-60
2022/11/15 02:24:33;;;;;;;5.80;5.20;;;14.70;61.40;;;;;;5023027;28;21374;-60
2022/11/15 02:27:46;;;;;;;6.80;6.20;;;14.70;61.90;;;;;;5029661;28;20496;-59
2022/11/15 02:30:21;;;;;;;5.63;4.97;;;14.70;62.10;;;;;;5018625;28;20452;-59
2022/11/15 02:32:50;;;;;;;6.87;5.43;;;14.50;62.40;;;;;;5022005;28;20435;-59
2022/11/15 02:35:18;;;;;;;5.93;5.33;;;14.40;62.70;;;;;;5021999;28;20458;-59
2022/11/15 02:37:58;;;;;;;7.10;5.30;;;14.50;62.80;;;;;;5024685;28;20451;-59
2022/11/15 02:40:44;;;;;;;6.93;5.33;;;14.40;62.60;;;;;;5029997;28;20451;-59
2022/11/15 02:46:19;;;;;;;5.37;4.97;;;14.20;63.70;;;;;;5022551;28;21363;-59
2022/11/15 02:48:46;;;;;;;7.80;6.00;;;14.10;64.20;;;;;;5027171;28;20436;-60
2022/11/15 02:51:13;;;;;;;5.80;5.30;;;14.00;64.90;;;;;;5022138;28;21172;-60
2022/11/15 02:53:38;;;;;;;5.40;4.90;;;14.00;64.90;;;;;;5022505;28;21513;-59
2022/11/15 02:56:04;;;;;;;7.47;5.67;;;14.00;64.70;;;;;;5024146;28;20500;-59
2022/11/15 02:58:42;;;;;;;6.43;5.83;;;14.10;64.90;;;;;;5026568;28;20668;-59
2022/11/15 03:01:39;;;;;;;7.40;5.60;;;14.10;64.90;;;;;;5022460;28;20193;-60
2022/11/15 03:04:17;;;;;;;6.40;4.23;;;14.10;65.30;;;;;;4997912;28;20550;-59
2022/11/15 03:06:53;;;;;;;5.07;4.57;;;14.20;64.50;;;;;;5027270;28;20440;-60
2022/11/15 03:09:35;;;;;;;10.00;6.73;;;14.20;64.30;;;;;;5026591;28;20442;-60
2022/11/15 03:12:08;;;;;;;7.40;5.80;;;14.20;63.80;;;;;;5023924;28;20501;-60
2022/11/15 03:14:49;;;;;;;8.33;5.67;;;14.20;64.00;;;;;;5025114;28;20578;-59
2022/11/15 03:17:33;;;;;;;6.07;4.93;;;13.90;64.50;;;;;;5022277;28;21285;-59
2022/11/15 03:20:02;;;;;;;6.10;4.80;;;13.80;65.30;;;;;;5024033;28;20454;-59
2022/11/15 03:22:32;;;;;;;7.27;4.63;;;13.60;66.30;;;;;;5017311;28;20494;-59
2022/11/15 03:25:03;;;;;;;5.90;4.63;;;13.40;66.90;;;;;;5020399;28;20802;-59
2022/11/15 03:27:35;;;;;;;8.97;5.00;;;13.40;67.70;;;;;;5025911;28;20843;-59
2022/11/15 03:30:05;;;;;;;6.67;4.97;;;13.40;67.30;;;;;;5026003;28;20505;-59
2022/11/15 03:32:40;;;;;;;7.00;4.77;;;13.50;66.90;;;;;;5024340;28;20536;-59
2022/11/15 03:35:10;;;;;;;4.53;4.10;;;13.70;66.30;;;;;;5025232;28;20467;-59
2022/11/15 03:37:45;;;;;;;5.73;4.87;;;13.60;66.30;;;;;;5030028;28;20485;-59
2022/11/15 03:40:12;;;;;;;6.13;5.53;;;13.60;66.40;;;;;;5030306;28;20533;-59
2022/11/15 03:42:58;;;;;;;6.03;5.50;;;13.60;66.60;;;;;;5027277;28;20467;-59
2022/11/15 03:45:31;;;;;;;6.17;5.57;;;13.70;66.00;;;;;;5028056;28;20455;-59
2022/11/15 03:48:10;;;;;;;5.70;5.10;;;13.60;66.00;;;;;;5028163;28;20439;-59
2022/11/15 03:50:36;;;;;;;8.20;4.83;;;13.60;65.80;;;;;;5027794;28;20440;-59
2022/11/15 03:53:02;;;;;;;7.17;4.57;;;13.10;68.30;;;;;;5029584;28;20541;-59
2022/11/15 03:55:28;;;;;;;6.93;5.27;;;12.80;69.90;;;;;;5025913;28;20440;-59
2022/11/15 03:57:57;;;;;;;6.10;5.50;;;13.00;69.80;;;;;;5029325;28;20688;-59
2022/11/15 04:00:23;;;;;;;9.00;5.53;;;13.20;68.90;;;;;;5028156;28;21215;-59
2022/11/15 04:02:48;;;;;;;7.47;5.10;;;13.30;68.00;;;;;;5022567;28;20523;-59
2022/11/15 04:05:14;;;;;;;6.90;4.63;;;13.40;67.90;;;;;;5025567;28;20201;-59
2022/11/15 04:07:40;;;;;;;5.80;4.30;;;13.50;67.20;;;;;;5028033;28;20196;-59
2022/11/15 04:10:06;;;;;;;6.13;4.80;;;13.60;66.60;;;;;;5030501;28;20201;-59
2022/11/15 04:12:33;;;;;;;6.80;4.90;;;13.70;66.20;;;;;;5025718;28;20205;-58
2022/11/15 04:15:08;;;;;;;7.37;4.93;;;13.70;65.90;;;;;;5026899;28;20550;-59
2022/11/15 04:17:42;;;;;;;6.03;4.80;;;13.70;65.80;;;;;;5028627;28;20447;-59
2022/11/15 04:26:11;;;;;;;6.30;4.40;;;13.60;66.00;;;;;;5021447;28;20451;-59
2022/11/15 04:29:34;;;;;;;6.37;4.80;;;13.60;65.60;;;;;;5026599;28;20568;-60
2022/11/15 04:31:26;;;;;;;7.20;4.53;;;13.60;65.60;;;;;;5029854;28;20543;-59
2022/11/15 04:33:52;;;;;;;5.67;5.00;;;13.70;65.40;;;;;;5029578;28;21218;-59
2022/11/15 04:39:02;;;;;;;5.17;4.67;;;13.10;67.80;;;;;;5028560;28;20451;-59
2022/11/15 04:41:29;;;;;;;5.30;4.73;;;13.00;67.70;;;;;;5028523;28;20440;-59
2022/11/15 04:43:55;;;;;;;5.40;4.53;;;12.80;68.60;;;;;;5030751;28;20204;-59
2022/11/15 04:46:21;;;;;;;4.30;4.00;;;12.90;68.80;;;;;;5023492;28;20445;-59
2022/11/15 04:48:46;;;;;;;7.03;4.63;;;12.90;69.30;;;;;;5026693;28;20943;-59
2022/11/15 04:51:12;;;;;;;7.90;4.60;;;13.00;69.10;;;;;;5028550;28;20527;-59
2022/11/15 04:53:38;;;;;;;5.03;4.47;;;13.00;67.80;;;;;;5029133;28;20593;-59
2022/11/15 04:56:04;;;;;;;7.97;7.17;;;13.10;67.60;;;;;;5024250;28;20228;-59
2022/11/15 04:58:29;;;;;;;7.60;5.53;;;13.00;67.80;;;;;;5025364;28;20248;-59
2022/11/15 05:00:55;;;;;;;7.03;6.33;;;13.10;67.40;;;;;;5022957;28;20498;-59
2022/11/15 05:06:05;;;;;;;5.20;4.70;;;13.20;66.80;;;;;;5029738;28;20209;-59
2022/11/15 05:08:31;;;;;;;4.50;4.10;;;13.10;66.90;;;;;;5029934;28;20444;-59
2022/11/15 05:10:56;;;;;;;7.50;5.87;;;12.90;67.20;;;;;;5024909;28;20580;-59
2022/11/15 05:13:22;;;;;;;5.37;4.87;;;12.80;67.70;;;;;;5027954;28;20304;-59
2022/11/15 05:15:47;;;;;;;6.13;4.10;;;12.80;68.30;;;;;;5036875;28;20189;-59
2022/11/15 05:18:13;;;;;;;5.73;5.23;;;12.80;68.10;;;;;;5024838;28;20190;-59
2022/11/15 05:20:39;;;;;;;6.17;4.57;;;12.80;68.00;;;;;;5022848;28;20247;-59
2022/11/15 05:23:04;;;;;;;4.60;4.00;;;12.80;68.10;;;;;;5023596;28;20225;-59
2022/11/15 05:25:30;;;;;;;5.03;4.60;;;12.90;67.90;;;;;;5025298;28;20251;-59
2022/11/15 05:27:55;;;;;;;6.50;5.30;;;13.00;67.60;;;;;;5034428;28;20255;-59
2022/11/15 05:30:21;;;;;;;7.50;6.27;;;12.90;67.50;;;;;;5021063;28;20197;-59
2022/11/15 05:32:47;;;;;;;5.77;4.63;;;12.90;67.60;;;;;;5027078;28;20186;-59
2022/11/15 05:35:19;;;;;;;6.53;4.40;;;12.70;67.80;;;;;;5022347;28;20436;-59
2022/11/15 05:37:46;;;;;;;5.73;5.20;;;12.60;68.80;;;;;;5019974;28;20527;-59
2022/11/15 05:40:11;;;;;;;5.43;4.80;;;12.60;68.50;;;;;;5024327;28;20923;-59
2022/11/15 05:42:37;;;;;;;8.83;5.30;;;12.80;68.50;;;;;;5022084;28;20440;-59
2022/11/15 05:45:06;;;;;;;4.37;3.97;;;12.80;67.90;;;;;;5029897;28;20272;-59
2022/11/15 05:47:33;;;;;;;6.57;3.70;;;12.60;68.00;;;;;;5028488;28;20806;-59
2022/11/15 05:49:59;;;;;;;7.60;3.90;;;12.50;68.80;;;;;;5028461;28;20437;-59
2022/11/15 05:52:31;;;;;;;4.63;3.63;;;12.60;68.60;;;;;;5030282;28;20462;-59
2022/11/15 05:54:58;;;;;;;7.90;3.87;;;12.70;68.50;;;;;;5027764;28;20221;-58
2022/11/15 05:57:24;;;;;;;3.60;3.30;;;12.70;68.50;;;;;;5029992;28;20448;-59
2022/11/15 05:59:50;;;;;;;5.43;3.37;;;12.70;68.00;;;;;;5028246;28;20451;-59
2022/11/15 06:02:16;;;;;;;7.30;4.77;;;12.80;68.40;;;;;;5027607;28;20497;-59
2022/11/15 06:04:41;;;;;;;15.17;7.07;;;12.90;67.90;;;;;;5026423;28;20928;-59
2022/11/15 06:07:07;;;;;;;7.67;6.30;;;12.90;67.20;;;;;;5030875;28;20188;-59
2022/11/15 06:09:33;;;;;;;8.83;6.97;;;12.80;67.40;;;;;;5042595;28;20193;-59
2022/11/15 06:11:58;;;;;;;11.13;5.37;;;12.90;67.90;;;;;;5030892;28;20607;-59
2022/11/15 06:14:24;;;;;;;6.40;4.60;;;12.90;67.20;;;;;;5030673;28;20312;-59
2022/11/15 06:16:49;;;;;;;8.27;4.63;;;12.90;67.10;;;;;;5028764;28;20201;-59
2022/11/15 06:19:15;;;;;;;5.10;4.30;;;12.90;67.40;;;;;;5039669;28;20189;-59
2022/11/15 06:21:40;;;;;;;6.57;4.57;;;12.90;67.10;;;;;;5026030;28;20251;-59
2022/11/15 06:24:06;;;;;;;7.37;4.80;;;13.10;68.10;;;;;;5021026;28;20200;-59
2022/11/15 06:26:32;;;;;;;6.53;4.83;;;13.20;69.20;;;;;;5026468;28;20201;-59
2022/11/15 06:28:58;;;;;;;7.90;4.73;;;13.40;68.90;;;;;;5026503;28;20988;-58
2022/11/15 06:31:23;;;;;;;6.80;5.13;;;13.70;68.80;;;;;;5027103;28;20253;-59
2022/11/15 06:33:49;;;;;;;4.83;4.00;;;13.90;68.20;;;;;;5026429;28;20330;-59
2022/11/15 06:36:16;;;;;;;5.40;4.33;;;14.00;67.70;;;;;;5027378;28;20189;-59
2022/11/15 06:38:43;;;;;;;3.87;3.50;;;14.10;66.90;;;;;;5025071;28;20197;-59
2022/11/15 06:41:10;;;;;;;4.70;3.97;;;14.20;65.60;;;;;;5025944;28;20432;-58
2022/11/15 06:43:36;;;;;;;3.90;3.43;;;14.20;64.80;;;;;;5022838;28;20986;-59
2022/11/15 06:46:03;;;;;;;4.17;3.40;;;14.30;64.30;;;;;;5026831;28;20505;-58
2022/11/15 06:48:30;;;;;;;6.00;4.40;;;14.40;64.10;;;;;;5023005;28;20440;-58
2022/11/15 06:50:58;;;;;;;6.27;4.97;;;14.40;62.90;;;;;;5039748;28;20475;-59
2022/11/15 06:53:25;;;;;;;5.90;4.23;;;14.40;63.00;;;;;;5030466;28;20495;-60
2022/11/15 06:55:50;;;;;;;8.00;4.60;;;14.50;62.90;;;;;;5028096;28;20814;-59
2022/11/15 06:58:16;;;;;;;5.00;4.53;;;14.50;62.40;;;;;;5029322;28;20440;-59
2022/11/15 07:00:42;;;;;;;6.23;4.77;;;14.60;62.00;;;;;;5027396;28;20228;-59
2022/11/15 07:03:08;;;;;;;6.63;5.10;;;14.60;62.00;;;;;;5030674;28;20584;-58
2022/11/15 07:05:35;;;;;;;5.87;4.20;;;14.80;62.50;;;;;;5028431;28;20849;-59
2022/11/15 07:08:00;;;;;;;8.40;5.13;;;15.10;62.00;;;;;;5027266;28;20439;-59
2022/11/15 07:10:27;;;;;;;6.83;5.30;;;15.60;60.30;;;;;;5026909;28;20932;-59
2022/11/15 07:12:53;;;;;;;6.20;4.60;;;16.10;58.40;;;;;;5027609;28;20212;-59
2022/11/15 07:15:21;;;;;;;7.47;5.23;;;16.60;56.90;;;;;;5028600;28;20822;-59
2022/11/15 07:17:50;;;;;;;5.37;4.57;;;16.70;55.90;;;;;;5027817;28;20433;-60
2022/11/15 07:20:16;;;;;;;6.13;4.97;;;17.00;55.40;;;;;;5028238;28;20438;-58
2022/11/15 07:22:44;;;;;;;5.90;5.13;;;16.90;55.00;;;;;;5027154;28;20468;-59
2022/11/15 07:25:10;;;;;;;5.00;4.13;;;17.00;55.40;;;;;;5028338;28;20537;-59
2022/11/15 07:27:36;;;;;;;10.87;4.57;;;16.90;54.40;;;;;;5029167;28;20467;-59
2022/11/15 07:30:03;;;;;;;5.27;4.50;;;16.90;54.40;;;;;;5027859;28;20201;-59
2022/11/15 07:32:29;;;;;;;8.60;6.57;;;16.60;54.90;;;;;;5037779;28;20207;-59
2022/11/15 07:34:54;;;;;;;8.63;4.70;;;16.40;55.80;;;;;;5031065;28;20495;-58
2022/11/15 07:37:20;;;;;;;6.53;4.60;;;16.50;55.70;;;;;;5029619;28;20201;-59
2022/11/15 07:39:45;;;;;;;7.00;4.60;;;16.60;55.70;;;;;;5028577;28;20759;-59
2022/11/15 07:44:55;;;;;;;6.40;5.20;;;16.70;55.60;;;;;;5027073;28;20573;-59
2022/11/15 07:47:21;;;;;;;5.73;4.00;;;16.70;55.60;;;;;;5029437;28;20437;-59
2022/11/15 07:49:47;;;;;;;7.10;4.50;;;16.50;55.80;;;;;;5025586;28;20637;-59
2022/11/15 07:52:13;;;;;;;5.70;4.20;;;16.50;56.10;;;;;;5024943;28;20568;-59
2022/11/15 07:54:39;;;;;;;6.43;4.50;;;16.30;56.50;;;;;;5027301;28;20225;-59
2022/11/15 07:57:06;;;;;;;8.67;4.57;;;16.40;57.70;;;;;;5031489;28;20459;-58
2022/11/15 07:59:32;;;;;;;4.43;3.97;;;16.50;57.00;;;;;;5025595;28;20963;-58
2022/11/15 08:01:58;;;;;;;9.23;5.03;;;16.40;56.90;;;;;;5027055;28;20440;-59
2022/11/15 08:04:23;;;;;;;5.83;4.03;;;16.40;57.20;;;;;;5025040;28;20213;-59
2022/11/15 08:06:49;;;;;;;3.43;3.13;;;16.40;57.30;;;;;;5015712;28;20203;-59
2022/11/15 08:09:14;;;;;;;6.43;3.80;;;16.30;57.00;;;;;;5024607;28;20657;-59
2022/11/15 08:11:40;;;;;;;4.97;4.13;;;16.40;57.30;;;;;;5022988;28;20212;-59
2022/11/15 08:14:05;;;;;;;5.00;4.27;;;16.40;57.40;;;;;;5025895;28;20319;-59
2022/11/15 08:16:32;;;;;;;5.07;4.20;;;16.50;57.50;;;;;;5033802;28;20197;-59
2022/11/15 08:18:57;;;;;;;9.93;5.13;;;16.60;58.00;;;;;;5023585;28;20288;-59
2022/11/15 08:21:23;;;;;;;7.60;4.40;;;16.70;57.70;;;;;;5029023;28;20602;-60
2022/11/15 08:23:48;;;;;;;7.70;3.83;;;16.70;57.30;;;;;;5026439;28;20197;-59
2022/11/15 08:26:14;;;;;;;11.63;4.77;;;16.60;57.00;;;;;;5026727;28;20189;-59
2022/11/15 08:28:40;;;;;;;5.63;4.47;;;16.70;57.40;;;;;;5029547;28;20240;-59
2022/11/15 08:31:06;;;;;;;6.00;4.43;;;16.60;57.50;;;;;;5029255;28;20606;-59
2022/11/15 08:33:32;;;;;;;5.67;5.07;;;16.70;57.80;;;;;;5028702;28;20224;-59
2022/11/15 08:36:01;;;;;;;7.43;4.90;;;16.80;57.50;;;;;;5027083;28;20450;-59
2022/11/15 08:38:28;;;;;;;9.93;5.63;;;16.90;57.50;;;;;;5029106;28;20454;-59
2022/11/15 08:41:03;;;;;;;9.87;5.83;;;16.90;57.40;;;;;;5025861;28;20451;-59
2022/11/15 08:43:29;;;;;;;8.50;5.70;;;17.00;57.30;;;;;;5027323;28;20462;-59
2022/11/15 08:45:58;;;;;;;8.60;5.20;;;17.00;56.90;;;;;;5029808;28;20444;-59
2022/11/15 08:48:23;;;;;;;8.03;5.40;;;17.10;56.90;;;;;;5028895;28;20197;-59
2022/11/15 08:50:52;;;;;;;10.33;5.80;;;17.10;57.00;;;;;;5030626;28;20454;-60
2022/11/15 08:53:18;;;;;;;8.40;5.30;;;17.10;57.20;;;;;;5029793;28;20738;-59
2022/11/15 08:55:43;;;;;;;6.70;4.53;;;17.10;57.20;;;;;;5030537;28;20476;-59
2022/11/15 08:58:09;;;;;;;4.77;4.30;;;17.20;57.10;;;;;;5031851;28;20655;-59
2022/11/15 09:00:35;;;;;;;5.27;4.70;;;17.20;56.70;;;;;;5023531;28;20657;-59
2022/11/15 09:03:04;;;;;;;6.57;4.87;;;17.40;56.70;;;;;;5033687;28;20279;-59
2022/11/15 09:05:30;;;;;;;5.83;4.57;;;17.30;56.70;;;;;;5028540;28;20189;-59
2022/11/15 09:07:55;;;;;;;5.70;4.60;;;17.20;56.40;;;;;;5023987;28;20448;-59
2022/11/15 09:10:22;;;;;;;4.97;4.50;;;17.20;56.30;;;;;;5029570;28;20287;-59
2022/11/15 09:12:48;;;;;;;4.87;4.30;;;17.40;56.40;;;;;;5029156;28;20194;-59
2022/11/15 09:15:14;;;;;;;3.63;3.33;;;17.50;56.10;;;;;;5027085;28;20575;-59
2022/11/15 09:17:40;;;;;;;4.60;4.20;;;17.50;55.60;;;;;;5026036;28;20448;-59
2022/11/15 09:20:06;;;;;;;4.50;4.03;;;17.70;55.20;;;;;;5028820;28;20451;-58
2022/11/15 09:22:32;;;;;;;4.20;3.87;;;17.80;55.00;;;;;;5028782;28;20655;-59
2022/11/15 09:24:57;;;;;;;5.77;4.07;;;17.80;55.00;;;;;;5030646;28;20448;-59
2022/11/15 09:27:26;;;;;;;4.30;3.70;;;18.00;55.00;;;;;;5025312;28;20189;-59
2022/11/15 09:29:52;;;;;;;4.30;3.67;;;18.30;54.50;;;;;;5030506;28;20197;-59
2022/11/15 09:32:17;;;;;;;5.03;3.90;;;18.30;53.30;;;;;;5030621;28;20444;-59
2022/11/15 09:34:43;;;;;;;6.20;4.20;;;18.40;53.10;;;;;;5022475;28;20760;-59
2022/11/15 09:37:09;;;;;;;4.97;4.47;;;18.60;53.10;;;;;;5030999;28;20298;-59
2022/11/15 09:39:34;;;;;;;7.10;4.63;;;18.70;52.90;;;;;;5029283;28;20197;-59
2022/11/15 09:42:10;;;;;;;6.00;4.50;;;18.70;52.80;;;;;;5028903;28;20657;-59
2022/11/15 09:44:44;;;;;;;5.27;4.67;;;18.80;52.90;;;;;;5024131;28;20195;-59
2022/11/15 09:47:22;;;;;;;5.73;4.60;;;18.80;52.90;;;;;;5026028;28;20771;-59
2022/11/15 09:49:53;;;;;;;4.63;4.20;;;18.90;53.10;;;;;;5021251;28;20447;-59
2022/11/15 09:52:20;;;;;;;6.37;4.70;;;19.00;53.10;;;;;;5025237;28;20975;-59
2022/11/15 09:54:49;;;;;;;6.57;4.87;;;19.10;52.50;;;;;;5029174;28;20987;-59
2022/11/15 09:57:46;;;;;;;3.70;3.40;;;19.20;52.50;;;;;;5025780;28;20440;-59
2022/11/15 10:00:33;;;;;;;5.17;4.00;;;19.40;52.70;;;;;;5022148;28;20487;-60
2022/11/15 10:03:19;;;;;;;5.20;4.53;;;19.50;51.90;;;;;;5042303;28;20446;-60
2022/11/15 10:05:51;;;;;;;5.93;4.77;;;19.70;51.00;;;;;;5029272;28;20466;-60
2022/11/15 10:08:42;;;;;;;6.10;3.90;;;19.80;51.00;;;;;;5030562;28;20466;-60
2022/11/15 10:11:10;;;;;;;4.17;3.70;;;19.90;50.60;;;;;;5024369;28;20451;-60
2022/11/15 10:13:41;;;;;;;5.53;4.13;;;20.00;50.80;;;;;;5028142;28;20931;-60
2022/11/15 10:16:28;;;;;;;6.13;4.20;;;20.30;50.10;;;;;;5024083;28;20928;-60
2022/11/15 10:19:05;;;;;;;5.70;3.80;;;20.40;50.10;;;;;;5032135;28;20489;-60
2022/11/15 10:21:58;;;;;;;3.93;3.30;;;20.30;50.20;;;;;;5027882;28;20855;-59
2022/11/15 10:24:28;;;;;;;3.63;3.30;;;20.40;49.30;;;;;;5005964;28;20475;-60
2022/11/15 10:26:55;;;;;;;4.10;3.47;;;20.30;49.40;;;;;;5030195;28;20480;-60
2022/11/15 10:29:22;;;;;;;4.20;2.83;;;20.20;49.30;;;;;;5025621;28;20447;-59
2022/11/15 10:31:48;;;;;;;4.17;3.40;;;20.20;49.70;;;;;;5023424;28;20451;-59
2022/11/15 10:34:18;;;;;;;3.70;3.40;;;20.30;49.80;;;;;;5027370;28;20495;-59
2022/11/15 10:36:55;;;;;;;3.30;3.00;;;20.30;51.00;;;;;;5023152;28;20474;-60
2022/11/15 10:39:21;;;;;;;11.83;3.60;;;20.40;50.60;;;;;;5035434;28;20470;-59
2022/11/15 10:41:47;;;;;;;5.53;3.37;;;20.50;50.20;;;;;;5023205;28;20487;-59
2022/11/15 10:44:21;;;;;;;4.67;3.40;;;20.50;49.50;;;;;;5027577;28;20263;-59
2022/11/15 10:47:06;;;;;;;2.80;2.53;;;20.60;49.70;;;;;;5026923;28;20531;-59
2022/11/15 10:49:33;;;;;;;3.37;3.07;;;20.50;48.50;;;;;;5027713;28;20748;-59
2022/11/15 10:52:11;;;;;;;3.80;2.70;;;20.60;48.50;;;;;;5028662;28;20450;-60
2022/11/15 10:54:48;;;;;;;2.77;2.20;;;20.70;47.80;;;;;;5029477;28;20487;-60
2022/11/15 10:57:21;;;;;;;6.83;3.30;;;20.60;48.10;;;;;;5024150;28;20466;-59
2022/11/15 10:59:56;;;;;;;5.40;2.80;;;20.60;48.60;;;;;;5029507;28;20935;-59
2022/11/15 11:02:30;;;;;;;6.73;2.73;;;20.70;48.00;;;;;;5026760;28;20447;-59
2022/11/15 11:04:55;;;;;;;4.70;2.80;;;20.70;47.50;;;;;;5022418;28;22859;-59
2022/11/15 11:07:33;;;;;;;4.20;2.77;;;20.60;47.50;;;;;;5026350;28;20474;-59
2022/11/15 11:10:03;;;;;;;3.10;2.80;;;20.70;47.40;;;;;;5029507;28;20276;-59
2022/11/15 11:12:33;;;;;;;5.50;3.40;;;20.70;48.30;;;;;;5028085;28;20489;-59
2022/11/15 11:15:06;;;;;;;4.40;3.00;;;20.70;48.30;;;;;;5029743;28;20487;-59
2022/11/15 11:17:50;;;;;;;4.40;4.00;;;20.70;48.00;;;;;;5028630;28;20428;-59
2022/11/15 11:20:21;;;;;;;2.80;2.60;;;20.70;47.90;;;;;;5028612;28;20447;-59
2022/11/15 11:23:04;;;;;;;2.90;2.70;;;20.70;48.10;;;;;;5027168;28;20476;-59
2022/11/15 11:25:55;;;;;;;6.47;3.30;;;20.70;48.30;;;;;;5027398;28;20444;-59
2022/11/15 11:28:38;;;;;;;8.00;3.43;;;20.70;48.50;;;;;;5028641;28;20455;-59
2022/11/15 11:31:32;;;;;;;4.40;3.00;;;20.70;48.40;;;;;;5025501;28;20538;-59
2022/11/15 11:34:19;;;;;;;3.13;2.50;;;20.70;47.80;;;;;;5016207;28;20491;-59
2022/11/15 11:37:09;;;;;;;2.97;2.77;;;20.70;48.00;;;;;;5025870;28;20486;-60
2022/11/15 11:40:15;;;;;;;5.13;3.10;;;20.70;47.90;;;;;;5027281;28;20530;-60
2022/11/15 11:42:49;;;;;;;4.30;2.73;;;20.60;47.00;;;;;;5026047;28;20803;-60
2022/11/15 11:45:35;;;;;;;4.00;2.47;;;20.60;47.30;;;;;;5024612;28;20451;-60
2022/11/15 11:48:10;;;;;;;3.37;2.67;;;20.60;47.80;;;;;;5028293;28;20926;-59
2022/11/15 11:50:37;;;;;;;5.00;3.17;;;20.70;47.90;;;;;;5023864;28;20444;-59
2022/11/15 11:53:11;;;;;;;6.10;3.60;;;20.40;47.20;;;;;;5028257;28;20440;-59
2022/11/15 11:55:44;;;;;;;4.47;2.73;;;20.40;47.90;;;;;;5026804;28;20786;-59
2022/11/15 11:58:21;;;;;;;4.90;2.90;;;20.50;47.90;;;;;;5034113;28;20513;-59
2022/11/15 12:01:14;;;;;;;2.77;2.50;;;20.50;47.60;;;;;;5030827;28;20898;-59
2022/11/15 12:04:01;;;;;;;3.33;2.70;;;20.50;47.50;;;;;;5028611;28;20781;-59
2022/11/15 12:06:55;;;;;;;4.73;2.87;;;20.50;48.20;;;;;;5034028;28;21027;-59
2022/11/15 12:09:35;;;;;;;8.77;3.30;;;20.40;47.90;;;;;;5028328;28;20474;-59
2022/11/15 12:12:07;;;;;;;7.47;3.07;;;20.40;48.20;;;;;;5030478;28;20450;-59
2022/11/15 12:14:45;;;;;;;4.80;2.73;;;20.30;47.70;;;;;;5032187;28;20487;-59
2022/11/15 12:17:12;;;;;;;4.20;2.87;;;20.00;48.60;;;;;;5032048;28;20825;-60
2022/11/15 12:19:38;;;;;;;6.33;3.10;;;20.10;49.10;;;;;;5030603;28;20531;-59
2022/11/15 12:22:13;;;;;;;4.50;3.50;;;20.30;49.20;;;;;;5031703;28;20464;-59
2022/11/15 12:24:45;;;;;;;5.53;3.90;;;20.50;49.00;;;;;;5031481;28;20485;-59
2022/11/15 12:27:30;;;;;;;4.30;3.00;;;20.60;48.90;;;;;;5032560;28;20440;-59
2022/11/15 12:30:00;;;;;;;4.07;3.17;;;20.70;49.00;;;;;;5030978;28;20444;-59
2022/11/15 12:32:37;;;;;;;3.03;2.73;;;20.70;49.10;;;;;;5030499;28;20466;-60
2022/11/15 12:35:05;;;;;;;8.87;3.63;;;20.80;47.90;;;;;;5026038;28;20993;-60
2022/11/15 12:37:42;;;;;;;5.63;3.27;;;20.80;48.00;;;;;;5031785;28;20440;-59
2022/11/15 12:40:20;;;;;;;3.50;3.20;;;20.80;47.60;;;;;;5039506;28;20497;-59
2022/11/15 12:43:00;;;;;;;3.37;3.03;;;20.90;48.10;;;;;;5033993;28;20451;-59
2022/11/15 12:45:28;;;;;;;4.30;3.20;;;20.90;47.70;;;;;;5024047;28;20444;-59
2022/11/15 12:48:16;;;;;;;6.23;3.20;;;20.90;47.90;;;;;;5029621;28;20463;-59
2022/11/15 12:50:51;;;;;;;6.57;3.90;;;20.90;48.00;;;;;;5026055;28;20447;-59
2022/11/15 12:53:23;;;;;;;4.57;3.80;;;20.90;48.30;;;;;;5028976;28;20557;-59
2022/11/15 12:56:12;;;;;;;6.33;3.70;;;20.70;48.40;;;;;;5022795;28;20456;-59
2022/11/15 12:58:43;;;;;;;4.20;3.80;;;20.70;49.00;;;;;;5037333;28;20487;-59
2022/11/15 13:01:10;;;;;;;4.63;3.37;;;20.70;48.70;;;;;;5028930;28;20943;-58
2022/11/15 13:03:55;;;;;;;7.20;4.03;;;20.50;48.70;;;;;;5030829;28;20447;-58
2022/11/15 13:06:47;;;;;;;3.43;3.13;;;20.50;49.00;;;;;;5023549;28;20444;-59
2022/11/15 13:09:37;;;;;;;3.40;3.07;;;20.50;49.20;;;;;;5030134;28;20455;-59
2022/11/15 13:12:07;;;;;;;4.33;2.90;;;20.50;49.50;;;;;;5029278;28;20462;-59
2022/11/15 13:14:48;;;;;;;4.83;2.73;;;20.50;49.30;;;;;;5025671;28;20490;-60
2022/11/15 13:17:37;;;;;;;2.87;2.53;;;20.40;49.10;;;;;;5037013;28;20457;-59
2022/11/15 13:20:14;;;;;;;4.77;4.00;;;20.30;49.30;;;;;;5024362;28;20947;-59